Time;durP1;ratioP1;P1;durP2;ratioP2;P2;SDS_P1;SDS_P2;PMS_P1;PMS_P2;Temp;Humidity;BMP_temperature;BMP_pressure;BME280_temperature;BME280_humidity;BME280_pressure;Samples;Min_cycle;Max_cycle;Signal;HPM_P1;HPM_P2
2023/05/15 00:00:39;;;;;;;15.82;13.55;;;12.90;1.00;;;;;;5037139;28;20231;-72
2023/05/15 00:03:06;;;;;;;16.45;14.40;;;12.90;1.00;;;;;;5037342;28;20207;-72
2023/05/15 00:05:33;;;;;;;15.80;14.20;;;12.80;1.00;;;;;;5037545;28;20207;-72
2023/05/15 00:08:00;;;;;;;14.32;12.90;;;12.80;1.00;;;;;;5036793;28;20266;-71
2023/05/15 00:10:28;;;;;;;14.90;13.40;;;12.80;1.00;;;;;;5037290;28;20249;-71
2023/05/15 00:12:55;;;;;;;14.18;12.75;;;12.80;1.00;;;;;;5036608;28;20250;-71
2023/05/15 00:15:22;;;;;;;16.20;14.52;;;12.80;1.00;;;;;;5037388;28;20204;-71
2023/05/15 00:17:49;;;;;;;14.95;13.00;;;12.80;99.90;;;;;;5036992;28;20238;-70
2023/05/15 00:20:16;;;;;;;18.08;14.27;;;12.80;99.90;;;;;;5036761;28;20207;-70
2023/05/15 00:22:43;;;;;;;19.45;14.85;;;12.80;99.90;;;;;;5036924;28;20207;-71
2023/05/15 00:25:10;;;;;;;16.85;12.98;;;12.90;99.90;;;;;;5036956;28;20671;-70
2023/05/15 00:27:38;;;;;;;14.82;13.10;;;13.00;99.90;;;;;;5036896;28;20263;-70
2023/05/15 00:30:06;;;;;;;13.90;12.48;;;13.00;99.90;;;;;;5037479;28;20247;-71
2023/05/15 00:32:33;;;;;;;17.80;14.93;;;13.00;99.90;;;;;;5037228;28;20235;-71
2023/05/15 00:35:00;;;;;;;16.38;14.65;;;13.10;99.90;;;;;;5036393;28;20239;-71
2023/05/15 00:37:27;;;;;;;16.80;13.32;;;13.10;99.90;;;;;;5036990;28;20234;-71
2023/05/15 00:39:54;;;;;;;15.90;14.52;;;13.00;99.90;;;;;;5036420;28;20265;-71
2023/05/15 00:42:22;;;;;;;16.90;14.85;;;13.10;99.90;;;;;;5036878;28;20239;-71
2023/05/15 00:44:52;;;;;;;15.57;14.05;;;13.10;99.90;;;;;;5036768;28;20235;-71
2023/05/15 00:47:20;;;;;;;17.35;14.73;;;13.10;99.90;;;;;;5036972;28;20239;-71
2023/05/15 00:49:49;;;;;;;15.02;13.63;;;13.10;99.90;;;;;;5036459;28;20246;-71
2023/05/15 00:52:16;;;;;;;17.83;14.95;;;13.10;99.90;;;;;;5036818;28;20203;-71
2023/05/15 00:54:43;;;;;;;16.75;15.15;;;13.20;99.90;;;;;;5036428;28;20243;-71
2023/05/15 00:57:11;;;;;;;18.40;15.38;;;13.20;99.90;;;;;;5036912;28;20242;-70
2023/05/15 00:59:39;;;;;;;16.25;14.57;;;13.20;99.90;;;;;;5034173;28;20688;-72
2023/05/15 01:02:07;;;;;;;20.90;16.25;;;13.20;99.90;;;;;;5033417;28;20563;-72
2023/05/15 01:04:34;;;;;;;18.58;14.60;;;13.20;99.90;;;;;;5034027;28;20236;-72
2023/05/15 01:07:01;;;;;;;15.50;13.93;;;13.20;99.90;;;;;;5033310;28;20206;-72
2023/05/15 01:09:31;;;;;;;16.50;14.73;;;13.10;99.90;;;;;;5033699;28;20266;-72
2023/05/15 01:12:00;;;;;;;16.52;13.32;;;13.10;99.90;;;;;;5033232;28;20330;-71
2023/05/15 01:14:27;;;;;;;17.92;15.77;;;13.20;99.90;;;;;;5033417;28;20211;-71
2023/05/15 01:16:55;;;;;;;17.38;15.57;;;13.10;99.90;;;;;;5032864;28;20636;-70
2023/05/15 01:19:23;;;;;;;18.00;16.33;;;13.20;99.90;;;;;;5033193;28;20219;-70
2023/05/15 01:22:18;;;;;;;17.15;15.43;;;13.20;99.90;;;;;;5032865;28;20239;-70
2023/05/15 01:25:14;;;;;;;16.27;14.55;;;13.20;99.90;;;;;;5032935;28;20242;-70
2023/05/15 01:27:48;;;;;;;15.95;14.43;;;13.30;99.90;;;;;;5033051;28;20263;-71
2023/05/15 01:30:19;;;;;;;16.83;15.23;;;13.30;99.90;;;;;;5032991;28;20214;-70
2023/05/15 01:32:53;;;;;;;18.27;15.27;;;13.30;99.90;;;;;;5032635;28;20203;-70
2023/05/15 01:35:28;;;;;;;18.77;15.27;;;13.30;99.90;;;;;;5032990;28;20246;-70
2023/05/15 01:38:10;;;;;;;17.63;15.88;;;13.30;99.90;;;;;;5032616;28;20238;-70
2023/05/15 01:40:36;;;;;;;16.70;15.10;;;13.30;99.90;;;;;;5033020;28;20242;-70
2023/05/15 01:43:09;;;;;;;20.38;15.55;;;13.20;99.90;;;;;;5033271;28;20281;-70
2023/05/15 01:45:37;;;;;;;17.40;15.60;;;13.20;99.90;;;;;;5032991;28;20230;-71
2023/05/15 01:48:08;;;;;;;16.77;15.13;;;13.20;99.90;;;;;;5033180;28;20281;-70
2023/05/15 01:50:35;;;;;;;17.20;14.38;;;;;;;;;;5032957;28;20207;-70
2023/05/15 01:53:05;;;;;;;16.48;14.80;;;13.10;99.90;;;;;;5032900;28;20239;-70
2023/05/15 01:55:33;;;;;;;20.15;15.93;;;13.10;99.90;;;;;;5032889;28;20239;-70
2023/05/15 01:58:02;;;;;;;18.27;15.80;;;13.20;99.90;;;;;;5032383;28;20297;-70
2023/05/15 02:00:32;;;;;;;18.67;16.75;;;13.20;99.90;;;;;;5032438;28;20212;-70
2023/05/15 02:03:00;;;;;;;18.75;16.92;;;13.20;99.90;;;;;;5032099;28;20653;-69
2023/05/15 02:05:27;;;;;;;22.05;16.10;;;13.20;99.90;;;;;;5032456;28;20243;-70
2023/05/15 02:07:55;;;;;;;17.05;15.45;;;13.20;99.90;;;;;;5031938;28;20278;-70
2023/05/15 02:10:22;;;;;;;20.83;15.65;;;13.20;99.90;;;;;;5032358;28;20199;-70
2023/05/15 02:12:50;;;;;;;17.08;15.30;;;13.20;99.90;;;;;;5031977;28;20239;-70
2023/05/15 02:15:18;;;;;;;17.98;16.08;;;13.20;99.90;;;;;;5032011;28;20679;-69
2023/05/15 02:17:46;;;;;;;19.08;15.18;;;13.30;99.90;;;;;;5031855;28;20207;-70
2023/05/15 02:20:14;;;;;;;19.27;17.23;;;13.30;99.90;;;;;;5032219;28;20210;-71
2023/05/15 02:22:40;;;;;;;15.98;14.48;;;13.30;99.90;;;;;;5032053;28;20204;-70
2023/05/15 02:25:08;;;;;;;17.85;14.63;;;13.30;99.90;;;;;;5032286;28;20241;-72
2023/05/15 02:27:42;;;;;;;16.60;14.80;;;13.30;99.90;;;;;;5032437;28;20235;-71
2023/05/15 02:30:22;;;;;;;16.30;14.80;;;13.30;99.90;;;;;;5031917;28;20239;-71
2023/05/15 02:32:56;;;;;;;19.30;15.15;;;13.30;99.90;;;;;;5031653;28;20207;-71
2023/05/15 02:35:31;;;;;;;17.73;15.25;;;13.30;99.90;;;;;;5032007;28;20207;-71
2023/05/15 02:38:02;;;;;;;16.30;14.63;;;13.30;99.90;;;;;;5031474;28;20238;-70
2023/05/15 02:40:31;;;;;;;17.27;15.00;;;13.30;99.90;;;;;;5031847;28;20686;-70
2023/05/15 02:42:59;;;;;;;16.48;14.88;;;13.20;99.90;;;;;;5031270;28;20254;-70
2023/05/15 02:45:26;;;;;;;16.02;14.27;;;13.30;99.90;;;;;;5031590;28;20243;-70
2023/05/15 02:47:55;;;;;;;15.32;13.82;;;13.20;99.90;;;;;;5031320;28;20231;-71
2023/05/15 02:50:23;;;;;;;16.92;14.57;;;13.20;99.90;;;;;;5031534;28;20246;-72
2023/05/15 02:52:49;;;;;;;17.00;15.23;;;13.30;99.90;;;;;;5031220;28;20235;-71
2023/05/15 02:55:17;;;;;;;16.48;14.90;;;13.30;99.90;;;;;;5031492;28;20242;-71
2023/05/15 02:57:43;;;;;;;15.18;13.55;;;13.30;99.90;;;;;;5031353;28;20260;-71
2023/05/15 03:00:12;;;;;;;17.98;14.68;;;13.20;99.90;;;;;;5031479;28;20250;-71
2023/05/15 03:02:39;;;;;;;16.15;14.50;;;13.20;99.90;;;;;;5030943;28;20208;-70
2023/05/15 03:05:09;;;;;;;16.83;15.05;;;13.30;99.90;;;;;;5031735;28;20235;-70
2023/05/15 03:07:35;;;;;;;17.35;15.55;;;13.20;99.90;;;;;;5031430;28;20210;-71
2023/05/15 03:10:03;;;;;;;18.10;14.32;;;13.20;99.90;;;;;;5031093;28;20273;-71
2023/05/15 03:12:30;;;;;;;16.05;14.63;;;13.20;99.90;;;;;;5031234;28;20588;-69
2023/05/15 03:14:57;;;;;;;19.55;14.85;;;13.20;99.90;;;;;;5030827;28;20235;-73
2023/05/15 03:17:24;;;;;;;16.08;14.50;;;13.20;99.90;;;;;;5031086;28;20243;-72
2023/05/15 03:19:50;;;;;;;19.17;13.93;;;13.20;99.90;;;;;;5050149;28;20246;-71
2023/05/15 03:22:19;;;;;;;15.10;13.55;;;13.30;99.90;;;;;;5050874;28;20296;-71
2023/05/15 03:24:46;;;;;;;14.82;13.27;;;13.30;99.90;;;;;;5043801;28;20217;-71
2023/05/15 03:27:13;;;;;;;15.35;13.73;;;13.30;99.90;;;;;;5030717;28;20710;-74
2023/05/15 03:29:40;;;;;;;17.63;15.25;;;13.30;99.90;;;;;;5030678;28;20275;-71
2023/05/15 03:32:07;;;;;;;15.75;14.18;;;13.20;99.90;;;;;;5030989;28;20242;-71
2023/05/15 03:34:34;;;;;;;17.08;15.15;;;13.20;99.90;;;;;;5031072;28;20295;-71
2023/05/15 03:37:01;;;;;;;19.20;16.20;;;13.20;99.90;;;;;;5037214;28;20234;-70
2023/05/15 03:39:29;;;;;;;14.95;13.45;;;13.30;99.90;;;;;;5050983;28;20242;-71
2023/05/15 03:41:56;;;;;;;18.67;13.52;;;13.20;99.90;;;;;;5050300;28;20241;-72
2023/05/15 03:44:23;;;;;;;17.55;14.43;;;13.30;99.90;;;;;;5050687;28;20243;-71
2023/05/15 03:46:49;;;;;;;15.70;13.63;;;13.30;99.90;;;;;;5050377;28;20235;-71
2023/05/15 03:49:16;;;;;;;17.33;14.30;;;13.30;99.90;;;;;;5050702;28;20273;-72
2023/05/15 03:51:43;;;;;;;15.50;13.90;;;13.30;99.90;;;;;;5032728;28;20246;-72
2023/05/15 03:54:10;;;;;;;18.75;13.98;;;13.30;99.90;;;;;;5030940;28;20265;-71
2023/05/15 03:56:40;;;;;;;16.85;15.18;;;13.40;99.90;;;;;;5048648;28;20242;-71
2023/05/15 03:59:07;;;;;;;14.70;13.27;;;13.40;99.90;;;;;;5044435;28;20246;-72
2023/05/15 04:01:34;;;;;;;15.82;12.77;;;13.40;99.90;;;;;;5030861;28;20235;-71
2023/05/15 04:04:02;;;;;;;14.85;13.35;;;13.40;99.90;;;;;;5030240;28;20667;-71
2023/05/15 04:06:30;;;;;;;17.65;12.98;;;13.40;99.90;;;;;;5030392;28;20200;-72
2023/05/15 04:08:57;;;;;;;17.77;13.75;;;13.40;99.90;;;;;;5030147;28;20278;-73
2023/05/15 04:11:24;;;;;;;14.27;12.77;;;13.40;99.90;;;;;;5037117;28;20257;-72
2023/05/15 04:13:55;;;;;;;19.83;12.93;;;13.50;99.90;;;;;;5050238;28;20284;-72
2023/05/15 04:16:22;;;;;;;15.60;13.75;;;13.40;99.90;;;;;;5050364;28;20211;-72
2023/05/15 04:18:50;;;;;;;16.13;13.07;;;13.50;99.90;;;;;;5049937;28;20214;-72
2023/05/15 04:21:18;;;;;;;13.35;11.65;;;13.40;99.90;;;;;;5050246;28;20297;-71
2023/05/15 04:23:45;;;;;;;14.68;13.20;;;13.50;99.90;;;;;;5050046;28;20207;-71
2023/05/15 04:26:12;;;;;;;15.10;12.77;;;13.50;99.90;;;;;;5050179;28;20203;-73
2023/05/15 04:28:40;;;;;;;13.40;12.10;;;13.50;99.90;;;;;;5049537;28;20269;-74
2023/05/15 04:31:08;;;;;;;13.93;12.55;;;13.50;99.90;;;;;;5050073;28;20294;-73
2023/05/15 04:33:35;;;;;;;13.50;12.15;;;13.50;99.90;;;;;;5050844;28;20235;-73
2023/05/15 04:36:02;;;;;;;15.70;12.55;;;13.50;99.90;;;;;;5052716;28;20242;-73
2023/05/15 04:38:29;;;;;;;17.65;14.25;;;13.50;99.90;;;;;;5054129;28;20276;-72
2023/05/15 04:40:56;;;;;;;17.17;12.50;;;13.50;99.90;;;;;;5053409;28;20601;-73
2023/05/15 04:43:23;;;;;;;20.08;12.95;;;13.50;99.90;;;;;;5053817;28;20234;-73
2023/05/15 04:45:50;;;;;;;15.68;12.13;;;13.50;99.90;;;;;;5053459;28;20238;-73
2023/05/15 04:48:19;;;;;;;16.45;12.55;;;13.50;99.90;;;;;;5043758;28;20211;-72
2023/05/15 04:50:45;;;;;;;12.88;11.55;;;13.50;99.90;;;;;;5033479;28;20235;-72
2023/05/15 04:53:13;;;;;;;17.40;12.07;;;13.50;99.90;;;;;;5033544;28;20231;-72
2023/05/15 04:55:40;;;;;;;14.30;12.90;;;13.50;99.90;;;;;;5032654;28;20204;-72
2023/05/15 04:58:07;;;;;;;17.15;12.25;;;13.50;99.90;;;;;;5033365;28;20204;-72
2023/05/15 05:00:34;;;;;;;16.75;12.40;;;13.50;99.90;;;;;;5033669;28;20337;-72
2023/05/15 05:03:01;;;;;;;14.20;12.90;;;13.60;99.90;;;;;;5033118;28;20636;-71
2023/05/15 05:05:30;;;;;;;15.85;13.18;;;13.60;99.90;;;;;;5033314;28;20199;-73
2023/05/15 05:07:57;;;;;;;13.10;11.88;;;13.60;99.90;;;;;;5033178;28;20244;-73
2023/05/15 05:10:24;;;;;;;14.38;12.48;;;13.60;99.90;;;;;;5032971;28;20271;-72
2023/05/15 05:12:51;;;;;;;16.05;13.43;;;13.60;99.90;;;;;;5032978;28;20242;-73
2023/05/15 05:15:18;;;;;;;17.13;11.60;;;13.70;99.90;;;;;;5033367;28;20200;-71
2023/05/15 05:17:46;;;;;;;13.00;11.70;;;13.70;99.90;;;;;;5033129;28;20261;-72
2023/05/15 05:20:13;;;;;;;13.75;11.80;;;13.70;99.90;;;;;;5033149;28;20211;-71
2023/05/15 05:22:42;;;;;;;13.00;11.77;;;13.60;99.90;;;;;;5032813;28;20231;-72
2023/05/15 05:25:10;;;;;;;14.80;12.38;;;13.70;99.90;;;;;;5033074;28;20204;-71
2023/05/15 05:27:37;;;;;;;13.52;12.07;;;13.70;99.90;;;;;;5032959;28;20222;-72
2023/05/15 05:30:05;;;;;;;13.07;11.57;;;13.70;99.90;;;;;;5033451;28;20342;-72
2023/05/15 05:32:33;;;;;;;14.90;13.50;;;13.70;99.90;;;;;;5033443;28;20290;-72
2023/05/15 05:34:59;;;;;;;13.68;11.07;;;13.70;99.90;;;;;;5032585;28;20231;-71
2023/05/15 05:37:26;;;;;;;12.93;11.70;;;13.70;99.90;;;;;;5032976;28;20691;-72
2023/05/15 05:39:55;;;;;;;14.80;12.45;;;13.70;99.90;;;;;;5032281;28;20239;-73
2023/05/15 05:42:22;;;;;;;14.90;13.30;;;13.70;99.90;;;;;;5033150;28;20232;-73
2023/05/15 05:44:48;;;;;;;12.27;10.90;;;13.70;99.90;;;;;;5032722;28;20667;-72
2023/05/15 05:47:15;;;;;;;15.75;12.32;;;13.80;99.90;;;;;;5032294;28;20227;-72
2023/05/15 05:49:43;;;;;;;24.15;13.70;;;13.80;99.90;;;;;;5032278;28;20259;-72
2023/05/15 05:52:10;;;;;;;14.70;13.15;;;13.80;99.90;;;;;;5032564;28;20204;-73
2023/05/15 05:54:37;;;;;;;18.67;13.60;;;13.70;99.90;;;;;;5032521;28;20203;-73
2023/05/15 05:57:06;;;;;;;16.02;14.15;;;13.60;99.90;;;;;;5032858;28;20208;-74
2023/05/15 05:59:33;;;;;;;19.80;14.75;;;13.50;99.90;;;;;;5032804;28;20219;-75
2023/05/15 06:02:00;;;;;;;16.27;14.57;;;13.40;99.90;;;;;;5032151;28;20285;-73
2023/05/15 06:04:27;;;;;;;16.85;15.05;;;13.40;99.90;;;;;;5034343;28;20253;-73
2023/05/15 06:06:54;;;;;;;18.88;16.60;;;13.50;99.90;;;;;;5049795;28;20239;-72
2023/05/15 06:09:21;;;;;;;17.98;16.10;;;13.50;99.90;;;;;;5051139;28;20300;-72
2023/05/15 06:11:48;;;;;;;21.52;18.42;;;13.50;99.90;;;;;;5051876;28;20207;-71
2023/05/15 06:14:16;;;;;;;18.23;16.33;;;13.50;1.00;;;;;;5051769;28;20270;-71
2023/05/15 06:16:43;;;;;;;19.23;17.30;;;13.50;99.90;;;;;;5049561;28;20250;-71
2023/05/15 06:19:10;;;;;;;18.42;16.52;;;13.30;99.90;;;;;;5051408;28;20645;-72
2023/05/15 06:21:37;;;;;;;19.17;17.15;;;13.30;99.90;;;;;;5051607;28;20583;-72
2023/05/15 06:24:05;;;;;;;20.38;17.25;;;13.40;99.90;;;;;;5050416;28;20578;-73
2023/05/15 06:26:32;;;;;;;19.05;16.58;;;13.30;99.90;;;;;;5047234;28;20202;-73
2023/05/15 06:28:59;;;;;;;22.40;18.05;;;13.30;99.90;;;;;;5040538;28;20210;-74
2023/05/15 06:31:27;;;;;;;17.95;16.08;;;13.20;99.90;;;;;;5030506;28;20616;-74
2023/05/15 06:33:54;;;;;;;20.60;18.55;;;13.30;99.90;;;;;;5030513;28;20725;-76
2023/05/15 06:36:21;;;;;;;19.52;16.92;;;13.30;99.90;;;;;;5030356;28;20203;-75
2023/05/15 06:38:47;;;;;;;20.25;16.90;;;13.30;99.90;;;;;;5033623;28;20256;-75
2023/05/15 06:41:14;;;;;;;21.15;17.88;;;13.30;99.90;;;;;;5047296;28;20300;-74
2023/05/15 06:43:41;;;;;;;19.52;17.52;;;13.30;99.90;;;;;;5036518;28;20238;-74
2023/05/15 06:46:08;;;;;;;19.15;17.35;;;13.30;99.90;;;;;;5051360;28;20679;-74
2023/05/15 06:48:37;;;;;;;18.85;16.67;;;13.30;99.90;;;;;;5051588;28;20284;-74
2023/05/15 06:51:04;;;;;;;20.42;18.20;;;13.40;99.90;;;;;;5051585;28;20744;-73
2023/05/15 06:53:31;;;;;;;27.77;19.05;;;13.40;99.90;;;;;;5051976;28;20205;-74
2023/05/15 06:55:58;;;;;;;19.15;17.15;;;13.40;99.90;;;;;;5050804;28;20741;-74
2023/05/15 06:58:25;;;;;;;22.52;18.75;;;13.40;99.90;;;;;;5050557;28;20270;-74
2023/05/15 07:00:52;;;;;;;48.10;19.77;;;13.40;99.90;;;;;;5050800;28;20246;-74
2023/05/15 07:03:19;;;;;;;39.13;21.85;;;13.40;99.90;;;;;;5051216;28;20338;-74
2023/05/15 07:05:47;;;;;;;19.15;17.25;;;13.60;99.90;;;;;;5050934;28;20242;-74
2023/05/15 07:08:14;;;;;;;20.92;18.48;;;13.60;99.90;;;;;;5051453;28;20249;-75
2023/05/15 07:10:41;;;;;;;19.55;16.73;;;13.70;99.90;;;;;;5045962;28;20850;-72
2023/05/15 07:13:08;;;;;;;19.10;16.92;;;13.70;99.90;;;;;;5050628;28;20253;-73
2023/05/15 07:15:35;;;;;;;17.92;16.08;;;13.70;99.90;;;;;;5051474;28;20253;-72
2023/05/15 07:18:01;;;;;;;25.70;18.13;;;13.70;99.90;;;;;;5034493;28;20289;-73
2023/05/15 07:20:29;;;;;;;23.08;17.38;;;13.70;99.90;;;;;;5049847;28;20253;-75
2023/05/15 07:22:57;;;;;;;19.05;17.02;;;13.70;99.90;;;;;;5050852;28;20858;-72
2023/05/15 07:25:24;;;;;;;35.42;19.80;;;13.80;99.90;;;;;;5050928;28;20678;-73
2023/05/15 07:27:51;;;;;;;23.55;17.88;;;13.80;99.90;;;;;;5050765;28;20250;-75
2023/05/15 07:30:18;;;;;;;21.33;16.60;;;13.90;99.90;;;;;;5050761;28;20274;-73
2023/05/15 07:32:45;;;;;;;27.40;17.40;;;14.00;99.90;;;;;;5043303;28;20243;-73
2023/05/15 07:35:12;;;;;;;18.88;15.20;;;14.00;99.90;;;;;;5030297;28;20208;-73
2023/05/15 07:37:39;;;;;;;25.45;17.80;;;14.10;99.90;;;;;;5029163;28;20254;-74
2023/05/15 07:40:09;;;;;;;19.20;17.23;;;14.10;99.90;;;;;;5029619;28;20250;-76
2023/05/15 07:42:36;;;;;;;28.80;18.65;;;14.20;99.90;;;;;;5057849;28;20194;-76
2023/05/15 07:45:02;;;;;;;27.38;17.58;;;14.30;99.90;;;;;;5070351;28;20237;-74
2023/05/15 07:47:29;;;;;;;19.10;16.67;;;14.30;99.90;;;;;;5052880;28;20234;-75
2023/05/15 07:49:56;;;;;;;22.77;17.95;;;14.40;99.90;;;;;;5049874;28;20270;-75
2023/05/15 07:52:23;;;;;;;19.20;15.98;;;14.50;99.90;;;;;;5050602;28;20288;-76
2023/05/15 07:54:50;;;;;;;19.98;15.82;;;14.70;99.90;;;;;;5050285;28;20206;-75
2023/05/15 07:57:18;;;;;;;23.42;17.02;;;14.90;99.90;;;;;;5049595;28;20612;-76
2023/05/15 07:59:45;;;;;;;17.20;15.30;;;14.90;99.90;;;;;;5031883;28;20242;-75
2023/05/15 08:02:12;;;;;;;23.67;15.68;;;14.80;99.90;;;;;;5030322;28;20250;-76
2023/05/15 08:04:39;;;;;;;25.48;14.93;;;15.00;99.90;;;;;;5030142;28;20241;-76
2023/05/15 08:07:07;;;;;;;17.85;15.85;;;15.00;99.90;;;;;;5040502;28;20693;-75
2023/05/15 08:09:34;;;;;;;17.55;15.50;;;15.10;99.90;;;;;;5049327;28;20217;-77
2023/05/15 08:12:19;;;;;;;17.65;13.27;;;15.10;99.90;;;;;;5053909;28;20278;-76
2023/05/15 08:14:48;;;;;;;19.13;13.32;;;15.20;99.90;;;;;;5053011;28;20206;-75
2023/05/15 08:17:15;;;;;;;15.85;13.82;;;15.10;99.90;;;;;;5054319;28;20246;-75
2023/05/15 08:19:42;;;;;;;13.90;12.07;;;15.30;99.90;;;;;;5054232;28;20202;-75
2023/05/15 08:22:09;;;;;;;13.65;12.35;;;15.50;99.90;;;;;;5054514;28;20379;-76
2023/05/15 08:24:36;;;;;;;13.85;12.32;;;15.40;99.90;;;;;;5054448;28;20241;-76
2023/05/15 08:27:04;;;;;;;16.40;13.48;;;15.50;99.90;;;;;;5054793;28;20660;-77
2023/05/15 08:29:31;;;;;;;16.77;11.88;;;15.60;99.90;;;;;;5054706;28;20203;-76
2023/05/15 08:32:00;;;;;;;16.35;11.63;;;15.50;99.90;;;;;;5053864;28;20591;-77
2023/05/15 08:34:26;;;;;;;14.27;12.98;;;15.50;99.90;;;;;;5053713;28;20294;-77
2023/05/15 08:36:54;;;;;;;13.68;11.00;;;15.60;99.90;;;;;;5050017;28;20693;-83
2023/05/15 08:39:21;;;;;;;13.55;12.35;;;15.80;99.90;;;;;;5049145;28;20290;-82
2023/05/15 08:41:53;;;;;;;12.02;10.80;;;15.80;99.90;;;;;;5053740;28;20233;-81
2023/05/15 08:44:21;;;;;;;12.60;10.75;;;16.00;99.90;;;;;;5038459;28;20765;-78
2023/05/15 08:46:48;;;;;;;12.35;11.15;;;15.90;99.90;;;;;;5041967;28;20246;-80
2023/05/15 08:49:23;;;;;;;11.65;10.50;;;16.10;99.90;;;;;;5053580;28;20246;-80
2023/05/15 08:51:51;;;;;;;15.73;11.77;;;16.10;99.90;;;;;;5053524;28;20270;-79
2023/05/15 08:54:18;;;;;;;12.95;11.55;;;16.40;99.90;;;;;;5053687;28;20253;-79
2023/05/15 08:56:45;;;;;;;12.63;10.70;;;16.30;99.90;;;;;;5053275;28;20213;-79
2023/05/15 08:59:12;;;;;;;13.10;10.73;;;16.50;99.90;;;;;;5053936;28;20352;-78
2023/05/15 09:01:39;;;;;;;11.88;10.68;;;16.30;99.90;;;;;;5052969;28;20710;-77
2023/05/15 09:04:06;;;;;;;14.90;11.60;;;16.10;99.90;;;;;;5050338;28;20234;-78
2023/05/15 09:06:35;;;;;;;12.00;10.30;;;15.90;99.90;;;;;;5053648;28;20295;-82
2023/05/15 09:09:04;;;;;;;12.07;9.45;;;16.10;99.90;;;;;;5049273;28;20756;-82
2023/05/15 09:11:32;;;;;;;10.35;9.38;;;16.60;99.90;;;;;;5033590;28;20235;-77
2023/05/15 09:14:00;;;;;;;13.23;10.40;;;16.90;99.90;;;;;;5033134;28;20292;-76
2023/05/15 09:16:27;;;;;;;11.15;9.55;;;17.10;99.90;;;;;;5033233;28;20247;-80
2023/05/15 09:18:54;;;;;;;12.27;10.48;;;16.70;99.90;;;;;;5033180;28;20261;-82
2023/05/15 09:21:25;;;;;;;12.23;9.38;;;17.20;99.90;;;;;;5037582;28;20674;-76
2023/05/15 09:23:56;;;;;;;11.38;8.55;;;19.90;99.90;;;;;;5052562;28;20245;-81
2023/05/15 09:26:23;;;;;;;10.75;9.30;;;22.60;99.90;;;;;;5052060;28;20686;-76
2023/05/15 09:28:51;;;;;;;36.15;20.33;;;20.00;99.90;;;;;;5052590;28;20242;-81
2023/05/15 09:31:21;;;;;;;14.75;12.13;;;18.70;99.90;;;;;;5052497;28;20235;-80
2023/05/15 09:34:00;;;;;;;15.93;11.20;;;18.60;99.90;;;;;;5043293;28;20620;-78
2023/05/15 09:36:28;;;;;;;11.02;8.63;;;18.40;99.90;;;;;;5032957;28;20310;-77
2023/05/15 09:39:00;;;;;;;13.77;10.30;;;19.50;99.90;;;;;;5031760;28;20203;-78
2023/05/15 09:41:28;;;;;;;22.23;9.98;;;19.80;99.90;;;;;;5032290;28;20715;-79
2023/05/15 09:43:56;;;;;;;10.65;8.70;;;19.70;99.90;;;;;;5031904;28;20278;-77
2023/05/15 09:46:23;;;;;;;9.27;8.18;;;19.30;99.90;;;;;;5033056;28;20204;-76
2023/05/15 09:48:54;;;;;;;9.88;8.07;;;19.40;99.90;;;;;;5032832;28;20211;-79
2023/05/15 09:51:21;;;;;;;8.88;7.00;;;19.60;99.90;;;;;;5033068;28;20227;-78
2023/05/15 09:53:49;;;;;;;11.18;8.15;;;20.30;99.90;;;;;;5032472;28;20254;-76
2023/05/15 09:56:18;;;;;;;9.07;6.35;;;22.00;99.90;;;;;;5032702;28;20240;-75
2023/05/15 09:58:55;;;;;;;10.30;7.30;;;22.10;99.90;;;;;;5035581;28;20250;-74
2023/05/15 10:01:23;;;;;;;11.88;8.85;;;20.70;99.90;;;;;;5039387;28;20672;-75
2023/05/15 10:03:59;;;;;;;7.72;6.85;;;19.80;99.90;;;;;;5047551;28;20238;-72
2023/05/15 10:06:26;;;;;;;8.60;7.63;;;19.20;99.90;;;;;;5041112;28;20215;-72
2023/05/15 10:08:54;;;;;;;7.53;6.82;;;18.70;99.90;;;;;;5043254;28;20245;-73
2023/05/15 10:11:24;;;;;;;7.22;6.35;;;18.40;99.90;;;;;;5060158;28;20265;-71
2023/05/15 10:13:51;;;;;;;8.02;7.18;;;19.10;99.90;;;;;;5049951;28;20238;-70
2023/05/15 10:16:21;;;;;;;9.77;7.50;;;18.80;99.90;;;;;;5049906;28;20288;-74
2023/05/15 10:18:50;;;;;;;8.98;8.18;;;20.20;99.90;;;;;;5047893;28;20210;-72
2023/05/15 10:21:19;;;;;;;9.23;8.32;;;18.50;99.90;;;;;;5053597;28;20649;-70
2023/05/15 10:23:50;;;;;;;12.68;9.45;;;17.50;99.90;;;;;;5050374;28;20726;-70
2023/05/15 10:26:23;;;;;;;9.77;8.77;;;17.60;99.90;;;;;;5051973;28;20292;-71
2023/05/15 10:28:52;;;;;;;7.85;7.25;;;18.50;99.90;;;;;;5051396;28;20234;-69
2023/05/15 10:31:20;;;;;;;9.02;8.20;;;19.40;99.90;;;;;;5051808;28;20750;-72
2023/05/15 10:33:48;;;;;;;9.30;8.38;;;18.50;99.90;;;;;;5051497;28;20261;-72
2023/05/15 10:36:16;;;;;;;10.32;7.43;;;17.60;99.90;;;;;;5051461;28;20663;-72
2023/05/15 10:38:44;;;;;;;8.75;7.65;;;17.20;99.90;;;;;;5050764;28;20210;-72
2023/05/15 10:41:12;;;;;;;10.15;8.45;;;17.30;99.90;;;;;;5051813;28;20202;-72
2023/05/15 10:43:42;;;;;;;12.60;9.45;;;17.70;99.90;;;;;;5051206;28;20241;-72
2023/05/15 10:46:10;;;;;;;10.82;8.05;;;17.60;99.90;;;;;;5050376;28;20242;-73
2023/05/15 10:48:37;;;;;;;9.10;8.10;;;17.30;99.90;;;;;;5049844;28;20242;-72
2023/05/15 10:51:04;;;;;;;11.63;8.43;;;17.90;99.90;;;;;;5050336;28;20752;-72
2023/05/15 10:53:32;;;;;;;7.30;6.70;;;18.20;99.90;;;;;;5051436;28;20246;-71
2023/05/15 10:56:00;;;;;;;8.50;7.80;;;18.60;99.90;;;;;;5051222;28;20203;-72
2023/05/15 10:58:26;;;;;;;9.25;7.85;;;19.00;99.90;;;;;;5051340;28;20307;-72
2023/05/15 11:00:55;;;;;;;13.23;8.73;;;18.90;99.90;;;;;;5050909;28;20242;-72
2023/05/15 11:03:36;;;;;;;7.90;7.05;;;18.30;99.90;;;;;;5047063;28;20305;-75
2023/05/15 11:06:10;;;;;;;8.23;7.35;;;18.10;99.90;;;;;;5050975;28;20207;-73
2023/05/15 11:08:38;;;;;;;9.98;6.63;;;18.20;99.90;;;;;;5051128;28;20246;-76
2023/05/15 11:11:05;;;;;;;8.40;6.88;;;18.60;99.90;;;;;;5050813;28;20270;-73
2023/05/15 11:14:10;;;;;;;8.00;7.25;;;18.40;99.90;;;;;;5051365;28;20253;-72
2023/05/15 11:17:02;;;;;;;9.90;8.05;;;18.20;99.90;;;;;;5050501;28;20209;-72
2023/05/15 11:19:35;;;;;;;8.32;7.53;;;18.10;99.90;;;;;;5050529;28;20712;-72
2023/05/15 11:22:03;;;;;;;8.35;7.55;;;17.60;99.90;;;;;;5037685;28;20203;-73
2023/05/15 11:24:31;;;;;;;10.35;8.70;;;17.30;99.90;;;;;;5030584;28;20203;-71
2023/05/15 11:27:00;;;;;;;8.10;6.88;;;17.30;99.90;;;;;;5030631;28;20215;-73
2023/05/15 11:29:27;;;;;;;7.60;6.25;;;17.20;99.90;;;;;;5031015;28;20250;-72
2023/05/15 11:31:54;;;;;;;9.20;7.78;;;17.20;99.90;;;;;;5029716;28;20294;-73
2023/05/15 11:34:32;;;;;;;9.00;8.18;;;17.30;99.90;;;;;;5029512;28;20242;-74
2023/05/15 11:36:59;;;;;;;7.45;6.75;;;17.30;99.90;;;;;;5030014;28;20317;-71
2023/05/15 11:39:27;;;;;;;8.00;6.47;;;17.30;99.90;;;;;;5030774;28;20207;-75
2023/05/15 11:41:54;;;;;;;8.73;7.65;;;17.20;99.90;;;;;;5030384;28;20234;-73
2023/05/15 11:44:22;;;;;;;8.30;7.32;;;17.30;99.90;;;;;;5030528;28;20641;-72
2023/05/15 11:46:49;;;;;;;9.52;7.03;;;17.50;99.90;;;;;;5030676;28;20200;-71
2023/05/15 11:49:19;;;;;;;9.00;7.00;;;17.90;99.90;;;;;;5031050;28;20208;-72
2023/05/15 11:51:49;;;;;;;7.60;6.78;;;18.00;99.90;;;;;;5030177;28;20270;-73
2023/05/15 11:54:17;;;;;;;10.73;7.00;;;17.80;99.90;;;;;;5030876;28;20246;-73
2023/05/15 11:56:45;;;;;;;14.15;9.15;;;18.20;99.90;;;;;;5039885;28;20241;-72
2023/05/15 11:59:14;;;;;;;11.10;6.97;;;18.30;99.90;;;;;;5030561;28;20290;-72
2023/05/15 12:01:41;;;;;;;14.55;7.70;;;18.10;99.90;;;;;;5039348;28;20249;-72
2023/05/15 12:04:13;;;;;;;7.72;5.95;;;18.10;99.90;;;;;;5050368;28;20242;-72
2023/05/15 12:06:40;;;;;;;8.55;6.70;;;18.60;99.90;;;;;;5049980;28;20772;-72
2023/05/15 12:09:14;;;;;;;6.65;6.07;;;18.90;99.90;;;;;;5050515;28;20226;-74
2023/05/15 12:11:41;;;;;;;7.28;6.53;;;18.70;99.90;;;;;;5050092;28;20626;-74
2023/05/15 12:14:12;;;;;;;6.75;6.15;;;18.50;99.90;;;;;;5050395;28;20763;-75
2023/05/15 12:16:38;;;;;;;8.27;5.90;;;18.20;99.90;;;;;;5050136;28;20206;-72
2023/05/15 12:19:05;;;;;;;7.13;6.07;;;18.10;99.90;;;;;;5050745;28;20628;-73
2023/05/15 12:21:32;;;;;;;7.82;6.82;;;18.10;99.90;;;;;;5050646;28;20670;-73
2023/05/15 12:24:00;;;;;;;7.25;6.65;;;18.20;99.90;;;;;;5049841;28;20667;-74
2023/05/15 12:26:29;;;;;;;6.50;5.93;;;18.00;99.90;;;;;;5050366;28;20214;-72
2023/05/15 12:28:57;;;;;;;9.45;6.15;;;18.40;99.90;;;;;;5050218;28;20230;-73
2023/05/15 12:31:24;;;;;;;7.97;5.32;;;19.20;99.90;;;;;;5050246;28;20714;-74
2023/05/15 12:33:51;;;;;;;6.00;5.50;;;19.80;99.90;;;;;;5050102;28;20207;-74
2023/05/15 12:36:21;;;;;;;6.68;5.60;;;19.20;99.90;;;;;;5046305;28;20239;-73